createdAt,value
2018-01-30T00:00:59.200Z,70.30
2018-01-30T00:06:27.388Z,70.20
2018-01-30T00:11:56.348Z,69.70
2018-01-30T00:17:25.519Z,69.80
2018-01-30T00:22:53.700Z,69.50
2018-01-30T00:28:21.904Z,69.20
2018-01-30T00:33:50.844Z,68.60
2018-01-30T00:39:20.172Z,68.60
2018-01-30T00:44:48.338Z,68.50
2018-01-30T00:50:16.551Z,68.20
2018-01-30T00:55:44.749Z,68.00
2018-01-30T01:01:12.950Z,67.80
2018-01-30T01:06:41.182Z,67.50
2018-01-30T01:12:09.355Z,67.30
2018-01-30T01:17:38.573Z,67.00
2018-01-30T01:23:07.540Z,67.00
2018-01-30T01:28:35.718Z,67.00
2018-01-30T01:34:04.676Z,67.00
2018-01-30T01:39:33.830Z,67.00
2018-01-30T01:45:02.006Z,66.90
2018-01-30T01:50:30.191Z,67.10
2018-01-30T01:55:59.305Z,67.00
2018-01-30T02:01:27.481Z,67.10
2018-01-30T02:06:55.690Z,67.10
2018-01-30T02:12:23.867Z,67.20
2018-01-30T02:17:52.059Z,67.30
2018-01-30T02:23:20.227Z,67.40
2018-01-30T02:28:48.415Z,67.40
2018-01-30T02:34:17.358Z,67.70
2018-01-30T02:39:46.341Z,67.90
2018-01-30T02:45:14.542Z,67.90
2018-01-30T02:50:42.766Z,68.00
2018-01-30T02:56:10.962Z,68.20
2018-01-30T03:01:39.178Z,68.30
2018-01-30T03:07:08.295Z,68.60
2018-01-30T03:12:36.465Z,68.60
2018-01-30T03:18:04.675Z,68.70
2018-01-30T03:23:32.873Z,69.10
2018-01-30T03:29:04.051Z,69.40
2018-01-30T03:34:32.221Z,69.40
2018-01-30T03:40:00.415Z,69.90
2018-01-30T03:45:29.967Z,70.20
2018-01-30T03:50:58.905Z,70.50
2018-01-30T03:56:27.856Z,70.70
2018-01-30T04:01:56.020Z,70.60
2018-01-30T04:07:24.230Z,70.90
2018-01-30T04:12:52.402Z,71.20
2018-01-30T04:18:21.350Z,72.10
2018-01-30T04:23:50.744Z,72.10
2018-01-30T04:29:19.176Z,72.40
2018-01-30T04:34:47.356Z,72.80
2018-01-30T04:40:15.548Z,73.10
2018-01-30T04:45:43.740Z,73.10
2018-01-30T04:51:12.744Z,73.40
2018-01-30T04:56:40.968Z,73.40
2018-01-30T05:02:09.157Z,73.40
2018-01-30T05:07:38.162Z,73.50
2018-01-30T05:13:06.350Z,73.50
2018-01-30T05:18:34.544Z,73.50
2018-01-30T05:24:02.735Z,73.60
2018-01-30T05:29:33.397Z,74.00
2018-01-30T05:35:01.605Z,73.90
2018-01-30T05:40:29.849Z,74.10
2018-01-30T05:45:58.051Z,74.20
2018-01-30T05:51:26.252Z,74.30
2018-01-30T05:56:56.429Z,74.50
2018-01-30T06:02:24.626Z,74.60
2018-01-30T06:07:52.842Z,74.80
2018-01-30T06:13:21.082Z,75.00
2018-01-30T06:18:49.241Z,75.10
2018-01-30T06:24:17.428Z,75.10
2018-01-30T06:29:45.609Z,75.30
2018-01-30T06:35:14.583Z,75.20
2018-01-30T06:40:42.773Z,75.20
2018-01-30T06:46:11.768Z,75.40
2018-01-30T06:51:39.961Z,75.30
2018-01-30T06:57:08.522Z,75.30
2018-01-30T07:02:36.757Z,75.40
2018-01-30T07:08:04.947Z,75.50
2018-01-30T07:13:33.151Z,75.10
2018-01-30T07:19:01.364Z,75.60
2018-01-30T07:24:29.541Z,75.50
2018-01-30T07:29:58.488Z,76.00
2018-01-30T07:35:27.444Z,74.80
2018-01-30T07:40:55.641Z,75.30
2018-01-30T07:46:23.818Z,75.30
2018-01-30T07:51:51.993Z,75.10
2018-01-30T07:57:20.934Z,75.00
2018-01-30T08:02:49.875Z,74.90
2018-01-30T08:08:18.843Z,74.80
2018-01-30T08:13:47.029Z,74.70
2018-01-30T08:19:15.989Z,74.50
2018-01-30T08:24:44.173Z,74.50
2018-01-30T08:30:12.374Z,74.30
2018-01-30T08:35:40.559Z,74.00
2018-01-30T08:41:08.785Z,73.70
2018-01-30T08:46:36.966Z,73.10
2018-01-30T08:52:05.921Z,72.20
2018-01-30T08:57:34.101Z,72.20
2018-01-30T09:03:02.295Z,71.70
2018-01-30T09:08:32.503Z,71.80
2018-01-30T09:14:00.673Z,71.60
2018-01-30T09:19:28.859Z,71.40
2018-01-30T09:24:57.821Z,71.00
2018-01-30T09:30:26.002Z,70.90
2018-01-30T09:35:54.191Z,70.70
2018-01-30T09:41:22.364Z,70.90
2018-01-30T09:46:51.324Z,71.10
2018-01-30T09:52:19.514Z,71.10
2018-01-30T09:57:47.704Z,71.10
2018-01-30T10:03:15.891Z,71.10
2018-01-30T10:08:44.090Z,71.00
2018-01-30T10:14:13.055Z,70.90
2018-01-30T10:19:41.252Z,70.90
2018-01-30T10:25:10.206Z,71.00
2018-01-30T10:30:38.400Z,70.90
2018-01-30T10:36:08.306Z,71.20
2018-01-30T10:41:36.515Z,71.20
2018-01-30T10:47:05.470Z,71.00
2018-01-30T10:52:33.637Z,71.00
2018-01-30T10:58:02.670Z,71.00
2018-01-30T11:03:31.641Z,71.20
2018-01-30T11:08:59.823Z,71.10
2018-01-30T11:14:28.038Z,70.80
2018-01-30T11:19:57.004Z,71.10
2018-01-30T11:25:25.212Z,70.40
2018-01-30T11:30:54.187Z,70.60
2018-01-30T11:36:22.383Z,70.60
2018-01-30T11:41:51.336Z,71.50
2018-01-30T11:47:19.528Z,71.40
2018-01-30T11:52:48.465Z,71.80
2018-01-30T11:58:16.655Z,71.70
2018-01-30T12:03:44.872Z,71.80
2018-01-30T12:09:13.074Z,72.00
2018-01-30T12:14:41.289Z,72.10
2018-01-30T12:20:09.491Z,72.30
2018-01-30T12:25:37.681Z,72.60
2018-01-30T12:31:05.858Z,72.80
2018-01-30T12:36:34.050Z,72.90
2018-01-30T12:42:03.011Z,73.00
2018-01-30T12:47:31.957Z,72.90
2018-01-30T12:53:00.177Z,72.90
2018-01-30T12:58:28.375Z,72.80
2018-01-30T13:03:56.576Z,72.80
2018-01-30T13:09:25.535Z,72.70
2018-01-30T13:14:53.731Z,72.70
2018-01-30T13:20:22.684Z,72.70
2018-01-30T13:25:51.626Z,72.30
2018-01-30T13:31:19.804Z,72.30
2018-01-30T13:36:48.768Z,72.00
2018-01-30T13:42:17.705Z,72.00
2018-01-30T13:47:46.663Z,71.80
2018-01-30T13:53:14.932Z,71.80
2018-01-30T13:58:43.156Z,71.80
2018-01-30T14:04:11.349Z,71.50
2018-01-30T14:09:39.551Z,71.70
2018-01-30T14:15:07.754Z,71.60
2018-01-30T14:20:35.947Z,71.30
2018-01-30T14:26:04.170Z,71.40
2018-01-30T14:31:32.342Z,71.00
2018-01-30T14:37:05.595Z,71.00
2018-01-30T14:42:33.830Z,71.10
2018-01-30T14:48:02.080Z,71.30
2018-01-30T14:53:30.276Z,71.50
2018-01-30T14:58:58.445Z,71.50
2018-01-30T15:04:27.392Z,72.10
2018-01-30T15:09:55.638Z,72.10
2018-01-30T15:15:23.814Z,72.50
2018-01-30T15:20:52.761Z,73.10
2018-01-30T15:26:21.714Z,73.20
2018-01-30T15:31:49.892Z,73.20
2018-01-30T15:37:18.068Z,73.40
2018-01-30T15:42:46.255Z,73.50
2018-01-30T15:48:15.200Z,73.60
2018-01-30T15:53:44.192Z,73.90
2018-01-30T15:59:12.380Z,73.90
2018-01-30T16:04:40.601Z,74.00
2018-01-30T16:10:08.797Z,74.10
2018-01-30T16:15:37.044Z,74.20
2018-01-30T16:21:05.229Z,74.30
2018-01-30T16:26:33.616Z,74.30
2018-01-30T16:32:01.801Z,74.30
2018-01-30T16:37:30.763Z,74.30
2018-01-30T16:42:58.943Z,74.30
2018-01-30T16:48:27.987Z,74.60
2018-01-30T16:53:56.943Z,74.50
2018-01-30T16:59:25.936Z,74.60
2018-01-30T17:04:54.117Z,74.50
2018-01-30T17:10:23.065Z,74.60
2018-01-30T17:15:51.332Z,74.70
2018-01-30T17:21:19.542Z,74.70
2018-01-30T17:26:47.743Z,74.80
2018-01-30T17:32:20.256Z,74.80
2018-01-30T17:37:48.433Z,75.00
2018-01-30T17:43:16.624Z,75.20
2018-01-30T17:48:48.333Z,75.40
2018-01-30T17:54:16.509Z,75.60
2018-01-30T17:59:46.615Z,75.80
2018-01-30T18:05:14.847Z,75.80
2018-01-30T18:10:43.076Z,75.80
2018-01-30T18:16:11.296Z,75.80
2018-01-30T18:21:39.546Z,75.70
2018-01-30T18:27:13.136Z,75.80
2018-01-30T18:32:41.333Z,75.70
2018-01-30T18:38:10.288Z,75.90
2018-01-30T18:43:38.584Z,76.50
2018-01-30T18:49:07.536Z,76.00
2018-01-30T18:54:35.737Z,76.00
2018-01-30T19:00:03.918Z,76.00
2018-01-30T19:05:32.114Z,76.00
2018-01-30T19:11:00.327Z,76.00
2018-01-30T19:16:28.557Z,76.00
2018-01-30T19:21:56.797Z,76.00
2018-01-30T19:27:32.243Z,76.10
2018-01-30T19:33:01.455Z,76.10
2018-01-30T19:38:29.764Z,76.10
2018-01-30T19:43:58.008Z,76.20
2018-01-30T19:49:27.149Z,76.20
2018-01-30T19:54:57.087Z,76.20
2018-01-30T20:00:25.302Z,76.80
2018-01-30T20:05:56.926Z,76.20
2018-01-30T20:11:25.141Z,76.20
2018-01-30T20:16:55.286Z,76.20
2018-01-30T20:22:24.489Z,76.30
2018-01-30T20:27:53.451Z,76.40
2018-01-30T20:33:21.661Z,76.30
2018-01-30T20:38:49.837Z,76.20
2018-01-30T20:44:18.031Z,76.50
2018-01-30T20:49:46.237Z,76.30
2018-01-30T20:55:14.449Z,76.40
2018-01-30T21:00:43.440Z,76.40
2018-01-30T21:06:13.628Z,76.40
2018-01-30T21:11:42.884Z,76.50
2018-01-30T21:17:18.089Z,76.60
2018-01-30T21:22:46.260Z,76.50
2018-01-30T21:28:14.455Z,76.60
2018-01-30T21:33:42.648Z,76.60
2018-01-30T21:39:18.029Z,76.60
2018-01-30T21:44:53.207Z,76.70
2018-01-30T21:50:27.536Z,76.70
2018-01-30T21:55:59.728Z,76.70
2018-01-30T22:01:27.928Z,77.40
2018-01-30T22:06:56.128Z,76.60
2018-01-30T22:12:26.052Z,76.80
2018-01-30T22:17:54.250Z,76.60
2018-01-30T22:23:22.451Z,76.70
2018-01-30T22:28:56.505Z,76.80
2018-01-30T22:34:25.431Z,76.90
2018-01-30T22:39:57.901Z,76.90
2018-01-30T22:45:26.117Z,76.90
